createdAt,value
2023-01-18T00:01:26.088Z,5.80
2023-01-18T00:06:29.177Z,13.87
2023-01-18T00:11:32.547Z,12.60
2023-01-18T00:16:35.483Z,10.97
2023-01-18T00:21:41.202Z,9.57
2023-01-18T00:26:44.094Z,9.50
2023-01-18T00:31:47.239Z,6.70
2023-01-18T00:36:50.155Z,4.67
2023-01-18T00:42:11.665Z,5.23
2023-01-18T00:47:14.666Z,5.03
2023-01-18T00:52:18.189Z,4.27
2023-01-18T00:57:21.206Z,4.17
2023-01-18T01:02:24.202Z,5.50
2023-01-18T01:07:27.169Z,5.90
2023-01-18T01:12:48.555Z,7.13
2023-01-18T01:18:09.478Z,4.00
2023-01-18T01:23:40.383Z,6.10
2023-01-18T01:28:45.999Z,3.47
2023-01-18T01:33:49.228Z,4.07
2023-01-18T01:38:52.297Z,4.90
2023-01-18T01:44:02.899Z,2.30
2023-01-18T01:49:16.380Z,2.23
2023-01-18T01:54:45.438Z,4.13
2023-01-18T01:59:57.855Z,3.83
2023-01-18T02:05:03.179Z,3.10
2023-01-18T02:10:07.399Z,5.20
2023-01-18T02:15:11.365Z,5.63
2023-01-18T02:20:47.743Z,4.10
2023-01-18T02:26:35.460Z,4.10
2023-01-18T02:32:08.383Z,6.03
2023-01-18T02:37:14.079Z,4.63
2023-01-18T02:42:42.819Z,5.43
2023-01-18T02:47:46.450Z,3.17
2023-01-18T02:52:51.523Z,2.70
2023-01-18T02:58:03.252Z,5.03
2023-01-18T03:03:10.989Z,5.85
2023-01-18T03:08:36.294Z,4.20
2023-01-18T03:13:53.963Z,4.53
2023-01-18T03:19:30.812Z,4.30
2023-01-18T03:24:41.194Z,3.63
2023-01-18T03:30:05.504Z,8.73
2023-01-18T03:35:17.087Z,6.43
2023-01-18T03:40:25.793Z,4.35
2023-01-18T03:45:42.781Z,4.93
2023-01-18T03:51:00.930Z,4.90
2023-01-18T03:56:36.016Z,4.70
2023-01-18T04:01:39.089Z,4.10
2023-01-18T04:06:42.522Z,5.47
2023-01-18T04:11:45.424Z,4.97
2023-01-18T04:16:48.298Z,5.83
2023-01-18T04:21:51.012Z,6.83
2023-01-18T04:26:53.979Z,6.77
2023-01-18T04:31:57.203Z,25.60
2023-01-18T04:37:00.302Z,9.67
2023-01-18T04:42:03.517Z,12.10
2023-01-18T04:47:06.428Z,10.60
2023-01-18T04:52:09.670Z,10.40
2023-01-18T04:57:13.169Z,7.10
2023-01-18T05:02:16.186Z,9.87
2023-01-18T05:07:19.360Z,10.03
2023-01-18T05:12:22.483Z,10.80
2023-01-18T05:17:27.544Z,16.00
2023-01-18T05:22:33.076Z,9.47
2023-01-18T05:27:36.009Z,12.17
2023-01-18T05:32:39.098Z,12.90
2023-01-18T05:37:42.327Z,11.50
2023-01-18T05:42:45.301Z,10.87
2023-01-18T05:47:48.213Z,15.37
2023-01-18T05:52:51.399Z,3.77
2023-01-18T05:57:54.430Z,3.53
2023-01-18T06:02:57.843Z,2.07
2023-01-18T06:08:00.771Z,3.60
2023-01-18T06:13:03.673Z,3.77
2023-01-18T06:18:08.141Z,2.27
2023-01-18T06:23:10.964Z,1.60
2023-01-18T06:28:14.155Z,2.47
2023-01-18T06:33:17.653Z,2.50
2023-01-18T06:38:20.821Z,2.23
2023-01-18T06:43:24.122Z,3.63
2023-01-18T06:48:27.478Z,8.53
2023-01-18T06:53:30.644Z,7.93
2023-01-18T06:58:34.594Z,6.93
2023-01-18T07:03:39.053Z,3.20
2023-01-18T07:08:42.180Z,3.00
2023-01-18T07:13:46.223Z,3.80
2023-01-18T07:18:50.071Z,5.90
2023-01-18T07:23:53.037Z,13.93
2023-01-18T07:28:56.303Z,8.20
2023-01-18T07:33:59.228Z,8.37
2023-01-18T07:39:03.351Z,6.20
2023-01-18T07:44:06.530Z,9.57
2023-01-18T07:49:09.590Z,7.80
2023-01-18T07:54:12.630Z,6.37
2023-01-18T07:59:15.970Z,6.33
2023-01-18T08:04:18.817Z,6.27
2023-01-18T08:09:22.187Z,5.00
2023-01-18T08:14:25.150Z,4.10
2023-01-18T08:19:28.069Z,4.47
2023-01-18T08:24:31.277Z,5.53
2023-01-18T08:29:34.200Z,5.73
2023-01-18T08:34:38.118Z,4.97
2023-01-18T08:39:41.092Z,4.77
2023-01-18T08:44:44.117Z,3.80
2023-01-18T08:49:46.983Z,4.07
2023-01-18T08:54:49.994Z,3.63
2023-01-18T08:59:54.802Z,5.67
2023-01-18T09:04:58.234Z,4.93
2023-01-18T09:10:01.000Z,3.77
2023-01-18T09:15:04.512Z,3.93
2023-01-18T09:20:09.805Z,5.23
2023-01-18T09:25:13.401Z,7.10
2023-01-18T09:30:16.727Z,10.40
2023-01-18T09:35:19.916Z,9.63
2023-01-18T09:40:36.515Z,5.77
2023-01-18T09:45:44.439Z,5.73
2023-01-18T09:50:47.367Z,5.80
2023-01-18T09:56:18.667Z,5.83
2023-01-18T10:01:33.276Z,4.40
2023-01-18T10:07:07.405Z,5.40
2023-01-18T10:12:41.165Z,7.57
2023-01-18T10:17:46.646Z,5.40
2023-01-18T10:23:02.109Z,7.73
2023-01-18T10:28:53.278Z,5.30
2023-01-18T10:33:59.753Z,6.30
2023-01-18T10:39:28.128Z,5.10
2023-01-18T10:44:32.140Z,4.97
2023-01-18T10:49:43.722Z,6.57
2023-01-18T10:59:56.711Z,3.57
2023-01-18T11:05:23.641Z,7.40
2023-01-18T11:10:28.283Z,3.57
2023-01-18T11:15:31.818Z,2.60
2023-01-18T11:20:50.054Z,2.63
2023-01-18T11:26:05.700Z,4.70
2023-01-18T11:31:22.370Z,17.33
2023-01-18T11:36:42.140Z,44.63
2023-01-18T11:41:45.379Z,24.13
2023-01-18T11:46:55.796Z,38.50
2023-01-18T11:52:02.313Z,4.90
2023-01-18T11:57:07.507Z,6.17
2023-01-18T12:02:56.431Z,5.67
2023-01-18T12:08:38.511Z,4.97
2023-01-18T12:14:25.246Z,8.43
2023-01-18T12:19:58.477Z,51.37
2023-01-18T12:25:19.267Z,7.93
2023-01-18T12:30:50.006Z,5.87
2023-01-18T12:36:24.290Z,4.97
2023-01-18T12:41:32.973Z,5.83
2023-01-18T12:46:58.169Z,4.47
2023-01-18T12:52:18.218Z,6.50
2023-01-18T12:57:23.321Z,3.30
2023-01-18T13:02:44.430Z,5.30
2023-01-18T13:08:10.627Z,4.10
2023-01-18T13:13:29.240Z,4.63
2023-01-18T13:19:03.671Z,5.37
2023-01-18T13:24:34.393Z,4.00
2023-01-18T13:29:38.100Z,83.27
2023-01-18T13:34:48.276Z,67.20
2023-01-18T13:39:52.611Z,21.20
2023-01-18T13:45:30.089Z,11.73
2023-01-18T13:50:35.631Z,98.37
2023-01-18T13:56:00.172Z,70.80
2023-01-18T14:01:06.571Z,13.17
2023-01-18T14:06:31.166Z,10.23
2023-01-18T14:11:45.891Z,7.27
2023-01-18T14:16:57.573Z,7.00
2023-01-18T14:22:22.069Z,9.20
2023-01-18T14:27:32.608Z,8.07
2023-01-18T14:32:44.150Z,15.43
2023-01-18T14:37:48.606Z,24.80
2023-01-18T14:43:05.653Z,22.57
2023-01-18T14:48:17.282Z,54.10
2023-01-18T14:53:43.080Z,37.65
2023-01-18T14:58:57.123Z,21.30
2023-01-18T15:04:05.029Z,47.90
2023-01-18T15:09:10.045Z,34.83
2023-01-18T15:14:22.103Z,27.43
2023-01-18T15:19:44.107Z,27.37
2023-01-18T15:24:47.546Z,22.40
2023-01-18T15:29:56.814Z,25.40
2023-01-18T15:35:01.454Z,21.27
2023-01-18T15:40:28.331Z,23.37
2023-01-18T15:45:48.061Z,29.60
2023-01-18T15:50:55.828Z,52.27
2023-01-18T15:56:03.532Z,62.67
2023-01-18T16:01:20.392Z,80.37
2023-01-18T16:06:23.411Z,40.97
2023-01-18T16:11:54.629Z,38.33
2023-01-18T16:17:20.078Z,43.10
2023-01-18T16:22:38.857Z,28.00
2023-01-18T16:27:51.524Z,32.93
2023-01-18T16:32:54.380Z,37.57
2023-01-18T16:37:58.091Z,35.50
2023-01-18T16:43:21.041Z,33.77
2023-01-18T16:48:27.281Z,40.07
2023-01-18T16:53:30.220Z,24.10
2023-01-18T16:58:35.252Z,25.30
2023-01-18T17:03:39.523Z,37.73
2023-01-18T17:08:43.364Z,30.90
2023-01-18T17:13:47.797Z,31.60
2023-01-18T17:18:51.166Z,25.90
2023-01-18T17:23:56.463Z,26.93
2023-01-18T17:28:59.423Z,28.10
2023-01-18T17:34:03.035Z,27.23
2023-01-18T17:39:06.136Z,31.77
2023-01-18T17:44:09.577Z,20.60
2023-01-18T17:49:12.479Z,31.37
2023-01-18T17:54:21.028Z,29.50
2023-01-18T17:59:24.468Z,37.07
2023-01-18T18:04:29.799Z,45.93
2023-01-18T18:09:38.158Z,49.87
2023-01-18T18:14:41.409Z,32.37
2023-01-18T18:19:44.105Z,29.57
2023-01-18T18:24:49.138Z,29.60
2023-01-18T18:29:52.227Z,34.50
2023-01-18T18:34:55.618Z,44.30
2023-01-18T18:39:58.580Z,30.13
2023-01-18T18:45:01.583Z,44.37
2023-01-18T18:50:06.056Z,70.90
2023-01-18T18:55:11.162Z,76.93
2023-01-18T19:00:14.977Z,66.20
2023-01-18T19:05:18.131Z,63.93
2023-01-18T19:10:27.494Z,56.77
2023-01-18T19:15:30.760Z,55.90
2023-01-18T19:20:33.776Z,47.73
2023-01-18T19:25:40.953Z,55.50
2023-01-18T19:30:45.107Z,37.93
2023-01-18T19:35:48.101Z,40.50
2023-01-18T19:40:51.229Z,34.53
2023-01-18T19:45:54.353Z,34.10
2023-01-18T19:51:20.657Z,33.93
2023-01-18T19:56:25.744Z,36.20
2023-01-18T20:01:36.486Z,36.03
2023-01-18T20:06:42.297Z,31.38
2023-01-18T20:11:45.758Z,29.37
2023-01-18T20:16:48.730Z,37.27
2023-01-18T20:21:51.866Z,30.80
2023-01-18T20:26:56.417Z,25.97
2023-01-18T20:32:13.448Z,27.50
2023-01-18T20:37:18.615Z,20.60
2023-01-18T20:42:21.382Z,24.80
2023-01-18T20:47:24.344Z,25.50
2023-01-18T20:52:27.361Z,29.77
2023-01-18T20:57:31.911Z,25.63
2023-01-18T21:02:35.600Z,27.77
2023-01-18T21:07:40.725Z,24.17
2023-01-18T21:12:44.945Z,24.87
2023-01-18T21:17:48.050Z,27.83
2023-01-18T21:22:50.865Z,31.13
2023-01-18T21:27:54.365Z,25.53
2023-01-18T21:32:57.099Z,21.23
2023-01-18T21:38:02.972Z,16.30
2023-01-18T21:43:24.798Z,28.70
2023-01-18T21:48:30.346Z,30.83
2023-01-18T21:53:51.285Z,27.70
2023-01-18T21:58:54.712Z,13.90
2023-01-18T22:04:16.167Z,19.90
2023-01-18T22:09:19.643Z,29.30
2023-01-18T22:14:22.756Z,20.87
2023-01-18T22:19:25.699Z,20.67
2023-01-18T22:24:28.571Z,19.00
2023-01-18T22:29:31.578Z,21.33
2023-01-18T22:34:34.708Z,24.17
2023-01-18T22:39:37.886Z,24.13
2023-01-18T22:44:40.930Z,27.37
2023-01-18T22:49:43.873Z,30.77
2023-01-18T22:54:46.639Z,24.47
2023-01-18T22:59:49.370Z,22.33
2023-01-18T23:04:52.237Z,23.10
2023-01-18T23:09:55.246Z,20.03
2023-01-18T23:15:16.986Z,15.67
2023-01-18T23:20:20.024Z,16.77
2023-01-18T23:25:22.780Z,13.87
2023-01-18T23:30:25.676Z,15.90
2023-01-18T23:35:28.660Z,15.57
2023-01-18T23:40:50.364Z,16.00
2023-01-18T23:46:11.792Z,18.65
2023-01-18T23:51:33.157Z,15.65
2023-01-18T23:56:36.272Z,13.38
